sensor_id;sensor_type;location;lat;lon;timestamp;P1;durP1;ratioP1;P2;durP2;ratioP2
9481;SDS011;4779;48.062;11.672;2023-10-19T00:02:13;12.50;;;11.30;;
9481;SDS011;4779;48.062;11.672;2023-10-19T00:04:44;13.03;;;11.73;;
9481;SDS011;4779;48.062;11.672;2023-10-19T00:07:11;11.93;;;10.83;;
9481;SDS011;4779;48.062;11.672;2023-10-19T00:09:41;11.83;;;10.73;;
9481;SDS011;4779;48.062;11.672;2023-10-19T00:12:14;13.07;;;11.83;;
9481;SDS011;4779;48.062;11.672;2023-10-19T00:14:41;13.33;;;12.00;;
9481;SDS011;4779;48.062;11.672;2023-10-19T00:17:08;11.73;;;10.63;;
9481;SDS011;4779;48.062;11.672;2023-10-19T00:19:37;13.17;;;11.77;;
9481;SDS011;4779;48.062;11.672;2023-10-19T00:22:06;13.00;;;11.70;;
9481;SDS011;4779;48.062;11.672;2023-10-19T00:24:46;12.07;;;10.93;;
9481;SDS011;4779;48.062;11.672;2023-10-19T00:27:14;12.27;;;11.07;;
9481;SDS011;4779;48.062;11.672;2023-10-19T00:29:43;13.13;;;11.83;;
9481;SDS011;4779;48.062;11.672;2023-10-19T00:32:14;11.90;;;10.67;;
9481;SDS011;4779;48.062;11.672;2023-10-19T00:34:44;12.80;;;11.60;;
9481;SDS011;4779;48.062;11.672;2023-10-19T00:37:17;12.03;;;10.83;;
9481;SDS011;4779;48.062;11.672;2023-10-19T00:39:46;11.93;;;10.73;;
9481;SDS011;4779;48.062;11.672;2023-10-19T00:42:20;12.63;;;11.43;;
9481;SDS011;4779;48.062;11.672;2023-10-19T00:44:55;12.50;;;11.20;;
9481;SDS011;4779;48.062;11.672;2023-10-19T00:47:29;11.37;;;10.17;;
9481;SDS011;4779;48.062;11.672;2023-10-19T00:50:05;12.43;;;11.23;;
9481;SDS011;4779;48.062;11.672;2023-10-19T00:52:39;12.83;;;11.63;;
9481;SDS011;4779;48.062;11.672;2023-10-19T00:55:09;12.03;;;10.83;;
9481;SDS011;4779;48.062;11.672;2023-10-19T00:57:39;13.07;;;11.83;;
9481;SDS011;4779;48.062;11.672;2023-10-19T01:00:11;12.13;;;10.93;;
9481;SDS011;4779;48.062;11.672;2023-10-19T01:02:47;12.60;;;11.40;;
9481;SDS011;4779;48.062;11.672;2023-10-19T01:05:16;11.33;;;10.27;;
9481;SDS011;4779;48.062;11.672;2023-10-19T01:07:46;12.33;;;11.13;;
9481;SDS011;4779;48.062;11.672;2023-10-19T01:10:22;12.27;;;11.07;;
9481;SDS011;4779;48.062;11.672;2023-10-19T01:12:51;13.50;;;12.20;;
9481;SDS011;4779;48.062;11.672;2023-10-19T01:15:19;12.23;;;11.07;;
9481;SDS011;4779;48.062;11.672;2023-10-19T01:17:49;11.43;;;10.33;;
9481;SDS011;4779;48.062;11.672;2023-10-19T01:20:18;12.40;;;11.20;;
9481;SDS011;4779;48.062;11.672;2023-10-19T01:22:50;13.37;;;11.97;;
9481;SDS011;4779;48.062;11.672;2023-10-19T01:25:19;12.00;;;10.80;;
9481;SDS011;4779;48.062;11.672;2023-10-19T01:27:59;11.97;;;10.83;;
9481;SDS011;4779;48.062;11.672;2023-10-19T01:30:32;12.20;;;11.10;;
9481;SDS011;4779;48.062;11.672;2023-10-19T01:32:59;13.47;;;12.20;;
9481;SDS011;4779;48.062;11.672;2023-10-19T01:35:29;13.87;;;12.57;;
9481;SDS011;4779;48.062;11.672;2023-10-19T01:38:19;12.57;;;11.33;;
9481;SDS011;4779;48.062;11.672;2023-10-19T01:40:45;12.73;;;11.47;;
9481;SDS011;4779;48.062;11.672;2023-10-19T01:43:13;13.47;;;12.17;;
9481;SDS011;4779;48.062;11.672;2023-10-19T01:45:45;12.67;;;11.57;;
9481;SDS011;4779;48.062;11.672;2023-10-19T01:48:13;11.83;;;10.73;;
9481;SDS011;4779;48.062;11.672;2023-10-19T01:50:40;11.07;;;9.90;;
9481;SDS011;4779;48.062;11.672;2023-10-19T01:53:08;12.00;;;10.90;;
9481;SDS011;4779;48.062;11.672;2023-10-19T01:55:43;12.57;;;11.37;;
9481;SDS011;4779;48.062;11.672;2023-10-19T01:58:13;11.57;;;10.47;;
9481;SDS011;4779;48.062;11.672;2023-10-19T02:00:39;13.70;;;12.33;;
9481;SDS011;4779;48.062;11.672;2023-10-19T02:03:09;13.43;;;12.03;;
9481;SDS011;4779;48.062;11.672;2023-10-19T02:05:35;12.53;;;11.33;;
9481;SDS011;4779;48.062;11.672;2023-10-19T02:08:07;12.17;;;10.97;;
9481;SDS011;4779;48.062;11.672;2023-10-19T02:10:33;12.30;;;10.97;;
9481;SDS011;4779;48.062;11.672;2023-10-19T02:13:03;11.97;;;10.77;;
9481;SDS011;4779;48.062;11.672;2023-10-19T02:15:34;12.30;;;11.10;;
9481;SDS011;4779;48.062;11.672;2023-10-19T02:18:02;12.10;;;10.93;;
9481;SDS011;4779;48.062;11.672;2023-10-19T02:20:28;11.70;;;10.60;;
9481;SDS011;4779;48.062;11.672;2023-10-19T02:22:57;13.40;;;12.00;;
9481;SDS011;4779;48.062;11.672;2023-10-19T02:25:24;11.53;;;10.43;;
9481;SDS011;4779;48.062;11.672;2023-10-19T02:27:56;12.70;;;11.47;;
9481;SDS011;4779;48.062;11.672;2023-10-19T02:30:24;12.00;;;10.80;;
9481;SDS011;4779;48.062;11.672;2023-10-19T02:32:51;11.57;;;10.47;;
9481;SDS011;4779;48.062;11.672;2023-10-19T02:35:18;11.47;;;10.37;;
9481;SDS011;4779;48.062;11.672;2023-10-19T02:37:46;11.47;;;10.27;;
9481;SDS011;4779;48.062;11.672;2023-10-19T02:40:12;12.73;;;11.50;;
9481;SDS011;4779;48.062;11.672;2023-10-19T02:42:44;12.17;;;11.00;;
9481;SDS011;4779;48.062;11.672;2023-10-19T02:45:12;11.97;;;10.87;;
9481;SDS011;4779;48.062;11.672;2023-10-19T02:47:44;12.60;;;11.40;;
9481;SDS011;4779;48.062;11.672;2023-10-19T02:50:10;11.87;;;10.73;;
9481;SDS011;4779;48.062;11.672;2023-10-19T02:52:40;12.30;;;11.10;;
9481;SDS011;4779;48.062;11.672;2023-10-19T02:55:07;11.77;;;10.63;;
9481;SDS011;4779;48.062;11.672;2023-10-19T02:57:35;11.20;;;10.10;;
9481;SDS011;4779;48.062;11.672;2023-10-19T03:00:04;11.63;;;10.57;;
9481;SDS011;4779;48.062;11.672;2023-10-19T03:02:36;11.80;;;10.70;;
9481;SDS011;4779;48.062;11.672;2023-10-19T03:05:05;11.37;;;10.23;;
9481;SDS011;4779;48.062;11.672;2023-10-19T03:07:39;10.83;;;9.83;;
9481;SDS011;4779;48.062;11.672;2023-10-19T03:10:06;11.40;;;10.30;;
9481;SDS011;4779;48.062;11.672;2023-10-19T03:12:47;11.30;;;10.27;;
9481;SDS011;4779;48.062;11.672;2023-10-19T03:15:15;11.23;;;10.13;;
9481;SDS011;4779;48.062;11.672;2023-10-19T03:17:42;11.83;;;10.73;;
9481;SDS011;4779;48.062;11.672;2023-10-19T03:20:11;12.33;;;11.13;;
9481;SDS011;4779;48.062;11.672;2023-10-19T03:22:42;11.80;;;10.60;;
9481;SDS011;4779;48.062;11.672;2023-10-19T03:25:08;10.00;;;9.00;;
9481;SDS011;4779;48.062;11.672;2023-10-19T03:28:12;10.77;;;9.70;;
9481;SDS011;4779;48.062;11.672;2023-10-19T03:30:40;11.50;;;10.30;;
9481;SDS011;4779;48.062;11.672;2023-10-19T03:33:07;11.73;;;10.63;;
9481;SDS011;4779;48.062;11.672;2023-10-19T03:35:38;10.63;;;9.63;;
9481;SDS011;4779;48.062;11.672;2023-10-19T03:38:06;11.57;;;10.47;;
9481;SDS011;4779;48.062;11.672;2023-10-19T03:40:39;11.23;;;10.13;;
9481;SDS011;4779;48.062;11.672;2023-10-19T03:43:11;10.90;;;9.73;;
9481;SDS011;4779;48.062;11.672;2023-10-19T03:45:43;10.87;;;9.77;;
9481;SDS011;4779;48.062;11.672;2023-10-19T03:48:17;11.63;;;10.53;;
9481;SDS011;4779;48.062;11.672;2023-10-19T03:50:51;11.37;;;10.27;;
9481;SDS011;4779;48.062;11.672;2023-10-19T03:53:20;11.50;;;10.33;;
9481;SDS011;4779;48.062;11.672;2023-10-19T03:55:48;27.67;;;25.10;;
9481;SDS011;4779;48.062;11.672;2023-10-19T03:58:17;21.77;;;19.70;;
9481;SDS011;4779;48.062;11.672;2023-10-19T04:00:46;17.30;;;15.70;;
9481;SDS011;4779;48.062;11.672;2023-10-19T04:03:15;14.67;;;13.33;;
9481;SDS011;4779;48.062;11.672;2023-10-19T04:05:43;10.83;;;9.77;;
9481;SDS011;4779;48.062;11.672;2023-10-19T04:08:15;11.00;;;9.97;;
9481;SDS011;4779;48.062;11.672;2023-10-19T04:10:45;10.13;;;9.13;;
9481;SDS011;4779;48.062;11.672;2023-10-19T04:13:33;11.23;;;10.23;;
9481;SDS011;4779;48.062;11.672;2023-10-19T04:16:01;18.13;;;16.37;;
9481;SDS011;4779;48.062;11.672;2023-10-19T04:18:28;16.90;;;15.30;;
9481;SDS011;4779;48.062;11.672;2023-10-19T04:20:56;16.60;;;15.00;;
9481;SDS011;4779;48.062;11.672;2023-10-19T04:23:25;14.97;;;13.57;;
9481;SDS011;4779;48.062;11.672;2023-10-19T04:25:53;15.97;;;14.33;;
9481;SDS011;4779;48.062;11.672;2023-10-19T04:28:23;15.67;;;14.17;;
9481;SDS011;4779;48.062;11.672;2023-10-19T04:30:59;13.70;;;12.40;;
9481;SDS011;4779;48.062;11.672;2023-10-19T04:33:31;11.90;;;10.80;;
9481;SDS011;4779;48.062;11.672;2023-10-19T04:36:00;11.80;;;10.70;;
9481;SDS011;4779;48.062;11.672;2023-10-19T04:38:29;10.73;;;9.73;;
9481;SDS011;4779;48.062;11.672;2023-10-19T04:41:05;10.83;;;9.77;;
9481;SDS011;4779;48.062;11.672;2023-10-19T04:43:35;11.10;;;10.00;;
9481;SDS011;4779;48.062;11.672;2023-10-19T04:46:04;12.07;;;10.87;;
9481;SDS011;4779;48.062;11.672;2023-10-19T04:48:36;12.60;;;11.40;;
9481;SDS011;4779;48.062;11.672;2023-10-19T04:51:05;12.93;;;11.63;;
9481;SDS011;4779;48.062;11.672;2023-10-19T04:53:37;13.23;;;11.93;;
9481;SDS011;4779;48.062;11.672;2023-10-19T04:56:05;13.67;;;12.37;;
9481;SDS011;4779;48.062;11.672;2023-10-19T04:58:34;13.87;;;12.57;;
9481;SDS011;4779;48.062;11.672;2023-10-19T05:01:01;12.30;;;11.10;;
9481;SDS011;4779;48.062;11.672;2023-10-19T05:03:30;12.30;;;11.10;;
9481;SDS011;4779;48.062;11.672;2023-10-19T05:05:57;12.00;;;10.63;;
9481;SDS011;4779;48.062;11.672;2023-10-19T05:08:25;11.33;;;10.23;;
9481;SDS011;4779;48.062;11.672;2023-10-19T05:10:54;11.90;;;10.80;;
9481;SDS011;4779;48.062;11.672;2023-10-19T05:13:24;13.40;;;12.03;;
9481;SDS011;4779;48.062;11.672;2023-10-19T05:15:52;12.43;;;10.80;;
9481;SDS011;4779;48.062;11.672;2023-10-19T05:18:19;14.23;;;12.73;;
9481;SDS011;4779;48.062;11.672;2023-10-19T05:20:47;14.57;;;11.93;;
9481;SDS011;4779;48.062;11.672;2023-10-19T05:23:20;12.33;;;11.13;;
9481;SDS011;4779;48.062;11.672;2023-10-19T05:25:47;12.80;;;11.50;;
9481;SDS011;4779;48.062;11.672;2023-10-19T05:28:16;11.90;;;10.13;;
9481;SDS011;4779;48.062;11.672;2023-10-19T05:30:44;11.87;;;10.77;;
9481;SDS011;4779;48.062;11.672;2023-10-19T05:33:11;12.40;;;10.93;;
9481;SDS011;4779;48.062;11.672;2023-10-19T05:35:39;10.60;;;9.50;;
9481;SDS011;4779;48.062;11.672;2023-10-19T05:38:06;9.83;;;8.83;;
9481;SDS011;4779;48.062;11.672;2023-10-19T05:40:34;11.67;;;10.43;;
9481;SDS011;4779;48.062;11.672;2023-10-19T05:43:04;11.70;;;10.50;;
9481;SDS011;4779;48.062;11.672;2023-10-19T05:45:34;10.93;;;9.83;;
9481;SDS011;4779;48.062;11.672;2023-10-19T05:48:04;9.90;;;8.90;;
9481;SDS011;4779;48.062;11.672;2023-10-19T05:50:32;10.97;;;9.87;;
9481;SDS011;4779;48.062;11.672;2023-10-19T05:53:00;10.93;;;9.80;;
9481;SDS011;4779;48.062;11.672;2023-10-19T05:55:28;10.90;;;9.90;;
9481;SDS011;4779;48.062;11.672;2023-10-19T05:57:55;10.97;;;9.83;;
9481;SDS011;4779;48.062;11.672;2023-10-19T06:00:22;9.97;;;9.07;;
9481;SDS011;4779;48.062;11.672;2023-10-19T06:02:53;11.00;;;9.23;;
9481;SDS011;4779;48.062;11.672;2023-10-19T06:05:20;10.33;;;9.37;;
9481;SDS011;4779;48.062;11.672;2023-10-19T06:07:48;10.40;;;9.50;;
9481;SDS011;4779;48.062;11.672;2023-10-19T06:10:17;10.60;;;9.50;;
9481;SDS011;4779;48.062;11.672;2023-10-19T06:12:45;10.97;;;9.53;;
9481;SDS011;4779;48.062;11.672;2023-10-19T06:15:13;10.40;;;9.30;;
9481;SDS011;4779;48.062;11.672;2023-10-19T06:17:41;10.50;;;9.17;;
9481;SDS011;4779;48.062;11.672;2023-10-19T06:20:12;9.80;;;8.90;;
9481;SDS011;4779;48.062;11.672;2023-10-19T06:22:49;9.57;;;8.57;;
9481;SDS011;4779;48.062;11.672;2023-10-19T06:25:17;9.53;;;8.60;;
9481;SDS011;4779;48.062;11.672;2023-10-19T06:27:45;9.37;;;8.37;;
9481;SDS011;4779;48.062;11.672;2023-10-19T06:30:13;9.13;;;8.33;;
9481;SDS011;4779;48.062;11.672;2023-10-19T06:32:44;9.23;;;8.33;;
9481;SDS011;4779;48.062;11.672;2023-10-19T06:35:13;9.30;;;7.90;;
9481;SDS011;4779;48.062;11.672;2023-10-19T06:37:41;9.23;;;8.33;;
9481;SDS011;4779;48.062;11.672;2023-10-19T07:01:35;9.17;;;8.10;;
9481;SDS011;4779;48.062;11.672;2023-10-19T07:04:03;14.67;;;8.77;;
9481;SDS011;4779;48.062;11.672;2023-10-19T07:06:31;8.37;;;7.53;;
9481;SDS011;4779;48.062;11.672;2023-10-19T07:08:58;13.00;;;8.30;;
9481;SDS011;4779;48.062;11.672;2023-10-19T07:11:28;8.77;;;7.83;;
9481;SDS011;4779;48.062;11.672;2023-10-19T07:13:55;8.07;;;7.27;;
9481;SDS011;4779;48.062;11.672;2023-10-19T07:16:25;10.63;;;8.50;;
9481;SDS011;4779;48.062;11.672;2023-10-19T07:18:54;10.20;;;8.03;;
9481;SDS011;4779;48.062;11.672;2023-10-19T07:21:22;8.03;;;7.23;;
9481;SDS011;4779;48.062;11.672;2023-10-19T07:23:50;10.80;;;6.77;;
9481;SDS011;4779;48.062;11.672;2023-10-19T07:26:18;7.03;;;6.33;;
9481;SDS011;4779;48.062;11.672;2023-10-19T07:28:55;9.57;;;6.40;;
9481;SDS011;4779;48.062;11.672;2023-10-19T07:31:22;9.17;;;6.87;;
9481;SDS011;4779;48.062;11.672;2023-10-19T07:33:50;7.73;;;6.23;;
9481;SDS011;4779;48.062;11.672;2023-10-19T07:36:18;6.30;;;5.60;;
9481;SDS011;4779;48.062;11.672;2023-10-19T07:38:46;7.83;;;5.90;;
9481;SDS011;4779;48.062;11.672;2023-10-19T07:41:13;6.97;;;5.97;;
9481;SDS011;4779;48.062;11.672;2023-10-19T07:43:41;6.40;;;5.17;;
9481;SDS011;4779;48.062;11.672;2023-10-19T07:46:08;9.73;;;6.53;;
9481;SDS011;4779;48.062;11.672;2023-10-19T07:48:37;7.67;;;5.53;;
9481;SDS011;4779;48.062;11.672;2023-10-19T07:51:04;6.10;;;5.07;;
9481;SDS011;4779;48.062;11.672;2023-10-19T07:53:34;7.47;;;5.80;;
9481;SDS011;4779;48.062;11.672;2023-10-19T07:56:01;7.20;;;5.00;;
9481;SDS011;4779;48.062;11.672;2023-10-19T07:58:29;5.87;;;5.10;;
9481;SDS011;4779;48.062;11.672;2023-10-19T08:00:56;8.87;;;5.40;;
9481;SDS011;4779;48.062;11.672;2023-10-19T08:03:24;5.80;;;5.03;;
9481;SDS011;4779;48.062;11.672;2023-10-19T08:05:51;8.33;;;5.47;;
9481;SDS011;4779;48.062;11.672;2023-10-19T08:08:19;5.87;;;5.27;;
9481;SDS011;4779;48.062;11.672;2023-10-19T08:10:51;5.77;;;4.67;;
9481;SDS011;4779;48.062;11.672;2023-10-19T08:13:18;5.20;;;4.70;;
9481;SDS011;4779;48.062;11.672;2023-10-19T08:15:45;6.53;;;4.70;;
9481;SDS011;4779;48.062;11.672;2023-10-19T08:18:12;5.53;;;4.90;;
9481;SDS011;4779;48.062;11.672;2023-10-19T08:20:40;5.40;;;4.90;;
9481;SDS011;4779;48.062;11.672;2023-10-19T08:23:10;7.40;;;5.30;;
9481;SDS011;4779;48.062;11.672;2023-10-19T08:25:38;5.50;;;4.77;;
9481;SDS011;4779;48.062;11.672;2023-10-19T08:28:07;8.33;;;5.03;;
9481;SDS011;4779;48.062;11.672;2023-10-19T08:30:34;8.67;;;6.13;;
9481;SDS011;4779;48.062;11.672;2023-10-19T08:33:02;8.13;;;5.47;;
9481;SDS011;4779;48.062;11.672;2023-10-19T08:35:31;7.03;;;5.10;;
9481;SDS011;4779;48.062;11.672;2023-10-19T08:38:02;9.13;;;5.30;;
9481;SDS011;4779;48.062;11.672;2023-10-19T08:40:36;6.73;;;4.83;;
9481;SDS011;4779;48.062;11.672;2023-10-19T08:43:05;8.70;;;5.20;;
9481;SDS011;4779;48.062;11.672;2023-10-19T08:45:39;6.60;;;4.80;;
9481;SDS011;4779;48.062;11.672;2023-10-19T08:48:08;5.50;;;4.20;;
9481;SDS011;4779;48.062;11.672;2023-10-19T08:50:36;5.53;;;4.17;;
9481;SDS011;4779;48.062;11.672;2023-10-19T08:53:04;6.47;;;4.88;;
9481;SDS011;4779;48.062;11.672;2023-10-19T08:55:33;7.18;;;5.00;;
9481;SDS011;4779;48.062;11.672;2023-10-19T08:58:00;6.40;;;4.85;;
9481;SDS011;4779;48.062;11.672;2023-10-19T09:00:39;6.88;;;4.85;;
9481;SDS011;4779;48.062;11.672;2023-10-19T09:03:10;6.55;;;5.05;;
9481;SDS011;4779;48.062;11.672;2023-10-19T09:05:39;7.30;;;4.88;;
9481;SDS011;4779;48.062;11.672;2023-10-19T09:08:06;8.10;;;4.63;;
9481;SDS011;4779;48.062;11.672;2023-10-19T09:10:35;6.00;;;4.05;;
9481;SDS011;4779;48.062;11.672;2023-10-19T09:13:03;6.45;;;4.18;;
9481;SDS011;4779;48.062;11.672;2023-10-19T09:15:33;6.32;;;3.83;;
9481;SDS011;4779;48.062;11.672;2023-10-19T09:18:12;4.28;;;3.45;;
9481;SDS011;4779;48.062;11.672;2023-10-19T09:20:40;6.38;;;4.15;;
9481;SDS011;4779;48.062;11.672;2023-10-19T09:23:17;5.30;;;3.60;;
9481;SDS011;4779;48.062;11.672;2023-10-19T09:25:45;4.57;;;3.65;;
9481;SDS011;4779;48.062;11.672;2023-10-19T09:28:12;5.28;;;3.63;;
9481;SDS011;4779;48.062;11.672;2023-10-19T09:30:39;5.55;;;3.78;;
9481;SDS011;4779;48.062;11.672;2023-10-19T09:33:08;4.38;;;3.80;;
9481;SDS011;4779;48.062;11.672;2023-10-19T09:35:37;5.82;;;4.07;;
9481;SDS011;4779;48.062;11.672;2023-10-19T09:38:08;3.90;;;3.50;;
9481;SDS011;4779;48.062;11.672;2023-10-19T09:40:36;4.88;;;4.03;;
9481;SDS011;4779;48.062;11.672;2023-10-19T09:43:04;4.53;;;4.05;;
9481;SDS011;4779;48.062;11.672;2023-10-19T09:45:33;9.45;;;5.13;;
9481;SDS011;4779;48.062;11.672;2023-10-19T09:48:05;6.85;;;5.13;;
9481;SDS011;4779;48.062;11.672;2023-10-19T09:50:33;7.95;;;5.55;;
9481;SDS011;4779;48.062;11.672;2023-10-19T09:53:02;7.05;;;5.25;;
9481;SDS011;4779;48.062;11.672;2023-10-19T09:55:32;7.45;;;5.13;;
9481;SDS011;4779;48.062;11.672;2023-10-19T09:58:02;8.07;;;5.38;;
9481;SDS011;4779;48.062;11.672;2023-10-19T10:00:29;8.02;;;6.28;;
9481;SDS011;4779;48.062;11.672;2023-10-19T10:02:57;10.43;;;6.05;;
9481;SDS011;4779;48.062;11.672;2023-10-19T10:10:57;8.73;;;4.85;;
9481;SDS011;4779;48.062;11.672;2023-10-19T10:13:36;7.30;;;4.88;;
9481;SDS011;4779;48.062;11.672;2023-10-19T10:16:04;7.00;;;4.38;;
9481;SDS011;4779;48.062;11.672;2023-10-19T10:18:34;7.95;;;4.28;;
9481;SDS011;4779;48.062;11.672;2023-10-19T10:21:05;6.93;;;4.78;;
9481;SDS011;4779;48.062;11.672;2023-10-19T10:23:35;6.18;;;4.45;;
9481;SDS011;4779;48.062;11.672;2023-10-19T10:26:09;4.50;;;3.83;;
9481;SDS011;4779;48.062;11.672;2023-10-19T10:28:36;6.57;;;4.97;;
9481;SDS011;4779;48.062;11.672;2023-10-19T10:31:11;6.47;;;4.65;;
9481;SDS011;4779;48.062;11.672;2023-10-19T10:33:42;4.78;;;4.35;;
9481;SDS011;4779;48.062;11.672;2023-10-19T10:36:11;5.85;;;4.25;;
9481;SDS011;4779;48.062;11.672;2023-10-19T10:38:38;7.07;;;4.22;;
9481;SDS011;4779;48.062;11.672;2023-10-19T10:41:06;6.57;;;3.92;;
9481;SDS011;4779;48.062;11.672;2023-10-19T10:46:20;5.93;;;4.40;;
9481;SDS011;4779;48.062;11.672;2023-10-19T10:48:51;6.78;;;4.10;;
9481;SDS011;4779;48.062;11.672;2023-10-19T10:51:19;6.38;;;4.50;;
9481;SDS011;4779;48.062;11.672;2023-10-19T10:53:50;5.03;;;4.05;;
9481;SDS011;4779;48.062;11.672;2023-10-19T10:56:18;6.40;;;3.78;;
9481;SDS011;4779;48.062;11.672;2023-10-19T10:58:45;6.07;;;4.50;;
9481;SDS011;4779;48.062;11.672;2023-10-19T11:01:14;5.18;;;3.35;;
9481;SDS011;4779;48.062;11.672;2023-10-19T11:03:42;5.43;;;3.50;;
9481;SDS011;4779;48.062;11.672;2023-10-19T11:06:11;3.85;;;3.10;;
9481;SDS011;4779;48.062;11.672;2023-10-19T11:08:38;5.90;;;3.00;;
9481;SDS011;4779;48.062;11.672;2023-10-19T11:11:06;3.53;;;2.97;;
9481;SDS011;4779;48.062;11.672;2023-10-19T11:13:36;5.22;;;3.10;;
9481;SDS011;4779;48.062;11.672;2023-10-19T11:16:04;2.63;;;2.40;;
9481;SDS011;4779;48.062;11.672;2023-10-19T11:18:33;7.03;;;3.33;;
9481;SDS011;4779;48.062;11.672;2023-10-19T11:21:05;3.47;;;2.42;;
9481;SDS011;4779;48.062;11.672;2023-10-19T11:23:38;5.90;;;3.45;;
9481;SDS011;4779;48.062;11.672;2023-10-19T11:26:05;9.05;;;2.97;;
9481;SDS011;4779;48.062;11.672;2023-10-19T11:28:33;4.82;;;2.53;;
9481;SDS011;4779;48.062;11.672;2023-10-19T11:31:10;3.85;;;2.80;;
9481;SDS011;4779;48.062;11.672;2023-10-19T11:33:38;6.28;;;2.63;;
9481;SDS011;4779;48.062;11.672;2023-10-19T11:36:08;4.30;;;2.15;;
9481;SDS011;4779;48.062;11.672;2023-10-19T11:38:37;4.10;;;2.33;;
9481;SDS011;4779;48.062;11.672;2023-10-19T11:41:05;2.85;;;2.35;;
9481;SDS011;4779;48.062;11.672;2023-10-19T11:43:33;5.13;;;2.88;;
9481;SDS011;4779;48.062;11.672;2023-10-19T11:46:00;3.75;;;2.42;;
9481;SDS011;4779;48.062;11.672;2023-10-19T11:48:29;3.25;;;2.28;;
9481;SDS011;4779;48.062;11.672;2023-10-19T11:50:57;4.13;;;2.15;;
9481;SDS011;4779;48.062;11.672;2023-10-19T11:53:26;5.10;;;2.45;;
9481;SDS011;4779;48.062;11.672;2023-10-19T11:55:58;3.03;;;2.53;;
9481;SDS011;4779;48.062;11.672;2023-10-19T11:58:25;2.42;;;1.98;;
9481;SDS011;4779;48.062;11.672;2023-10-19T12:00:53;3.22;;;2.20;;
9481;SDS011;4779;48.062;11.672;2023-10-19T12:03:21;2.70;;;2.05;;
9481;SDS011;4779;48.062;11.672;2023-10-19T12:05:48;2.03;;;1.83;;
9481;SDS011;4779;48.062;11.672;2023-10-19T12:08:18;5.25;;;2.40;;
9481;SDS011;4779;48.062;11.672;2023-10-19T12:10:47;4.10;;;2.17;;
9481;SDS011;4779;48.062;11.672;2023-10-19T12:13:14;4.13;;;2.10;;
9481;SDS011;4779;48.062;11.672;2023-10-19T12:15:41;5.07;;;2.50;;
9481;SDS011;4779;48.062;11.672;2023-10-19T12:18:16;3.90;;;2.53;;
9481;SDS011;4779;48.062;11.672;2023-10-19T12:20:43;2.58;;;2.30;;
9481;SDS011;4779;48.062;11.672;2023-10-19T12:23:11;4.03;;;2.33;;
9481;SDS011;4779;48.062;11.672;2023-10-19T12:25:38;2.95;;;2.05;;
9481;SDS011;4779;48.062;11.672;2023-10-19T12:28:08;4.15;;;2.15;;
9481;SDS011;4779;48.062;11.672;2023-10-19T12:30:40;3.75;;;2.10;;
9481;SDS011;4779;48.062;11.672;2023-10-19T12:33:07;4.25;;;2.05;;
9481;SDS011;4779;48.062;11.672;2023-10-19T12:35:37;3.70;;;2.05;;
9481;SDS011;4779;48.062;11.672;2023-10-19T12:38:14;3.85;;;2.10;;
9481;SDS011;4779;48.062;11.672;2023-10-19T12:40:43;3.67;;;2.25;;
9481;SDS011;4779;48.062;11.672;2023-10-19T12:43:12;3.00;;;1.90;;
9481;SDS011;4779;48.062;11.672;2023-10-19T12:45:40;2.28;;;1.85;;
9481;SDS011;4779;48.062;11.672;2023-10-19T12:48:09;2.58;;;2.10;;
9481;SDS011;4779;48.062;11.672;2023-10-19T12:50:37;2.95;;;1.83;;
9481;SDS011;4779;48.062;11.672;2023-10-19T12:53:06;3.42;;;1.70;;
9481;SDS011;4779;48.062;11.672;2023-10-19T12:55:33;1.85;;;1.60;;
9481;SDS011;4779;48.062;11.672;2023-10-19T12:58:03;3.47;;;1.90;;
9481;SDS011;4779;48.062;11.672;2023-10-19T13:00:35;3.75;;;1.35;;
9481;SDS011;4779;48.062;11.672;2023-10-19T13:03:06;1.15;;;0.88;;
9481;SDS011;4779;48.062;11.672;2023-10-19T13:05:34;0.80;;;0.80;;
9481;SDS011;4779;48.062;11.672;2023-10-19T13:08:05;2.42;;;1.30;;
9481;SDS011;4779;48.062;11.672;2023-10-19T13:10:33;2.03;;;1.40;;
9481;SDS011;4779;48.062;11.672;2023-10-19T13:13:04;4.45;;;1.60;;
9481;SDS011;4779;48.062;11.672;2023-10-19T13:15:32;1.95;;;1.20;;
9481;SDS011;4779;48.062;11.672;2023-10-19T13:18:01;1.95;;;1.38;;
9481;SDS011;4779;48.062;11.672;2023-10-19T13:20:29;5.07;;;1.52;;
9481;SDS011;4779;48.062;11.672;2023-10-19T13:23:00;3.63;;;1.52;;
9481;SDS011;4779;48.062;11.672;2023-10-19T13:25:29;2.47;;;1.45;;
9481;SDS011;4779;48.062;11.672;2023-10-19T13:28:09;1.70;;;1.40;;
9481;SDS011;4779;48.062;11.672;2023-10-19T13:30:38;2.65;;;1.70;;
9481;SDS011;4779;48.062;11.672;2023-10-19T13:33:07;2.97;;;1.65;;
9481;SDS011;4779;48.062;11.672;2023-10-19T13:35:36;1.70;;;1.60;;
9481;SDS011;4779;48.062;11.672;2023-10-19T13:38:03;3.15;;;1.48;;
9481;SDS011;4779;48.062;11.672;2023-10-19T13:40:31;2.10;;;1.40;;
9481;SDS011;4779;48.062;11.672;2023-10-19T13:42:58;1.63;;;1.52;;
9481;SDS011;4779;48.062;11.672;2023-10-19T13:45:26;1.95;;;1.65;;
9481;SDS011;4779;48.062;11.672;2023-10-19T13:47:53;3.55;;;1.63;;
9481;SDS011;4779;48.062;11.672;2023-10-19T13:50:23;1.58;;;1.13;;
9481;SDS011;4779;48.062;11.672;2023-10-19T13:52:51;2.10;;;1.50;;
9481;SDS011;4779;48.062;11.672;2023-10-19T13:55:21;2.47;;;2.10;;
9481;SDS011;4779;48.062;11.672;2023-10-19T13:57:49;4.05;;;2.22;;
9481;SDS011;4779;48.062;11.672;2023-10-19T14:00:17;2.60;;;1.90;;
9481;SDS011;4779;48.062;11.672;2023-10-19T14:02:50;4.30;;;1.80;;
9481;SDS011;4779;48.062;11.672;2023-10-19T14:05:17;4.55;;;1.75;;
9481;SDS011;4779;48.062;11.672;2023-10-19T14:07:46;2.78;;;1.77;;
9481;SDS011;4779;48.062;11.672;2023-10-19T14:10:13;2.92;;;1.88;;
9481;SDS011;4779;48.062;11.672;2023-10-19T14:12:41;4.05;;;2.03;;
9481;SDS011;4779;48.062;11.672;2023-10-19T14:15:12;4.18;;;2.28;;
9481;SDS011;4779;48.062;11.672;2023-10-19T14:17:40;3.90;;;3.08;;
9481;SDS011;4779;48.062;11.672;2023-10-19T14:20:07;4.50;;;3.05;;
9481;SDS011;4779;48.062;11.672;2023-10-19T14:22:38;5.85;;;3.10;;
9481;SDS011;4779;48.062;11.672;2023-10-19T14:25:10;3.08;;;2.72;;
9481;SDS011;4779;48.062;11.672;2023-10-19T14:27:39;4.22;;;3.10;;
9481;SDS011;4779;48.062;11.672;2023-10-19T14:30:07;4.38;;;3.03;;
9481;SDS011;4779;48.062;11.672;2023-10-19T14:32:37;2.17;;;1.90;;
9481;SDS011;4779;48.062;11.672;2023-10-19T14:35:05;4.93;;;2.50;;
9481;SDS011;4779;48.062;11.672;2023-10-19T14:37:36;3.92;;;2.72;;
9481;SDS011;4779;48.062;11.672;2023-10-19T14:40:06;2.67;;;2.30;;
9481;SDS011;4779;48.062;11.672;2023-10-19T14:42:37;7.53;;;2.90;;
9481;SDS011;4779;48.062;11.672;2023-10-19T14:45:08;5.03;;;3.67;;
9481;SDS011;4779;48.062;11.672;2023-10-19T14:47:36;4.50;;;3.38;;
9481;SDS011;4779;48.062;11.672;2023-10-19T14:50:06;3.25;;;2.90;;
9481;SDS011;4779;48.062;11.672;2023-10-19T14:52:36;3.83;;;2.83;;
9481;SDS011;4779;48.062;11.672;2023-10-19T14:55:04;4.13;;;3.17;;
9481;SDS011;4779;48.062;11.672;2023-10-19T14:57:32;5.53;;;3.53;;
9481;SDS011;4779;48.062;11.672;2023-10-19T15:00:01;5.13;;;3.22;;
9481;SDS011;4779;48.062;11.672;2023-10-19T15:02:39;4.75;;;3.80;;
9481;SDS011;4779;48.062;11.672;2023-10-19T15:05:08;4.75;;;4.10;;
9481;SDS011;4779;48.062;11.672;2023-10-19T15:07:38;6.60;;;5.38;;
9481;SDS011;4779;48.062;11.672;2023-10-19T15:10:07;6.15;;;5.45;;
9481;SDS011;4779;48.062;11.672;2023-10-19T15:12:37;6.10;;;5.40;;
9481;SDS011;4779;48.062;11.672;2023-10-19T15:15:06;6.72;;;6.00;;
9481;SDS011;4779;48.062;11.672;2023-10-19T15:17:34;8.07;;;5.70;;
9481;SDS011;4779;48.062;11.672;2023-10-19T15:20:03;8.35;;;7.28;;
9481;SDS011;4779;48.062;11.672;2023-10-19T15:22:31;10.27;;;9.27;;
9481;SDS011;4779;48.062;11.672;2023-10-19T15:24:58;15.48;;;13.02;;
9481;SDS011;4779;48.062;11.672;2023-10-19T15:27:25;13.45;;;11.15;;
9481;SDS011;4779;48.062;11.672;2023-10-19T15:29:54;13.27;;;11.90;;
9481;SDS011;4779;48.062;11.672;2023-10-19T15:32:23;14.10;;;12.90;;
9481;SDS011;4779;48.062;11.672;2023-10-19T15:34:50;14.77;;;12.93;;